createdAt,value
2023-04-16T00:00:08.257Z,10.26
2023-04-16T00:02:36.251Z,10.29
2023-04-16T00:05:04.460Z,10.36
2023-04-16T00:07:32.423Z,10.35
2023-04-16T00:10:00.352Z,10.24
2023-04-16T00:12:29.588Z,10.09
2023-04-16T00:14:57.488Z,9.94
2023-04-16T00:17:25.708Z,9.99
2023-04-16T00:19:53.755Z,9.95
2023-04-16T00:22:21.694Z,9.99
2023-04-16T00:24:49.755Z,9.96
2023-04-16T00:27:17.694Z,10.02
2023-04-16T00:29:47.065Z,9.97
2023-04-16T00:32:15.138Z,9.99
2023-04-16T00:34:43.003Z,9.93
2023-04-16T00:37:10.964Z,10.01
2023-04-16T00:39:39.155Z,9.90
2023-04-16T00:42:07.114Z,9.97
2023-04-16T00:44:36.137Z,9.98
2023-04-16T00:47:07.702Z,9.93
2023-04-16T00:49:37.148Z,9.92
2023-04-16T00:52:05.558Z,9.89
2023-04-16T00:54:33.601Z,9.83
2023-04-16T00:57:01.637Z,9.97
2023-04-16T00:59:30.557Z,9.95
2023-04-16T01:01:58.835Z,9.95
2023-04-16T01:04:29.882Z,10.08
2023-04-16T01:06:57.935Z,10.09
2023-04-16T01:09:25.875Z,10.14
2023-04-16T01:11:53.737Z,10.11
2023-04-16T01:14:21.686Z,10.20
2023-04-16T01:16:49.662Z,10.21
2023-04-16T01:19:17.641Z,10.29
2023-04-16T01:21:47.317Z,10.23
2023-04-16T01:24:15.226Z,10.27
2023-04-16T01:26:43.120Z,10.21
2023-04-16T01:29:11.490Z,10.25
2023-04-16T01:31:39.651Z,10.26
2023-04-16T01:34:07.552Z,10.45
2023-04-16T01:36:35.548Z,10.44
2023-04-16T01:39:05.505Z,10.45
2023-04-16T01:41:33.410Z,10.51
2023-04-16T01:44:01.420Z,10.52
2023-04-16T01:46:30.807Z,10.57
2023-04-16T01:48:59.096Z,10.69
2023-04-16T01:51:27.320Z,10.60
2023-04-16T01:53:56.034Z,10.67
2023-04-16T01:56:25.544Z,10.65
2023-04-16T01:58:53.851Z,10.67
2023-04-16T02:01:21.994Z,10.73
2023-04-16T02:03:50.237Z,10.64
2023-04-16T02:06:18.283Z,10.72
2023-04-16T02:08:46.225Z,10.75
2023-04-16T02:11:14.112Z,10.70
2023-04-16T02:13:43.340Z,10.76
2023-04-16T02:16:11.605Z,10.82
2023-04-16T02:18:39.657Z,10.85
2023-04-16T02:21:07.897Z,10.83
2023-04-16T02:23:35.956Z,10.75
2023-04-16T02:26:04.435Z,10.71
2023-04-16T02:28:32.298Z,10.62
2023-04-16T02:31:01.717Z,10.67
2023-04-16T02:33:29.708Z,10.80
2023-04-16T02:35:57.811Z,10.84
2023-04-16T02:38:25.771Z,10.84
2023-04-16T02:40:53.701Z,10.84
2023-04-16T02:43:21.912Z,10.87
2023-04-16T02:45:49.983Z,10.97
2023-04-16T02:48:19.459Z,10.84
2023-04-16T02:50:47.406Z,10.87
2023-04-16T02:53:15.537Z,10.86
2023-04-16T02:55:45.402Z,11.01
2023-04-16T02:58:13.364Z,11.08
2023-04-16T03:00:41.410Z,11.14
2023-04-16T03:03:09.312Z,11.21
2023-04-16T03:05:40.316Z,11.19
2023-04-16T03:08:08.722Z,11.08
2023-04-16T03:10:36.612Z,11.07
2023-04-16T03:13:05.195Z,11.13
2023-04-16T03:15:33.224Z,11.12
2023-04-16T03:18:01.700Z,11.13
2023-04-16T03:20:29.659Z,11.23
2023-04-16T03:22:59.043Z,11.28
2023-04-16T03:25:27.053Z,11.11
2023-04-16T03:27:54.876Z,11.18
2023-04-16T03:30:22.997Z,11.14
2023-04-16T03:32:51.975Z,11.23
2023-04-16T03:35:20.064Z,11.22
2023-04-16T03:37:48.066Z,11.32
2023-04-16T03:40:17.431Z,11.41
2023-04-16T03:42:45.443Z,11.46
2023-04-16T03:45:13.627Z,11.37
2023-04-16T03:47:41.560Z,11.32
2023-04-16T03:50:11.698Z,11.35
2023-04-16T03:52:39.636Z,11.33
2023-04-16T03:55:08.685Z,11.34
2023-04-16T03:57:38.114Z,11.43
2023-04-16T04:00:07.226Z,11.35
2023-04-16T04:02:35.251Z,11.40
2023-04-16T04:05:03.559Z,11.38
2023-04-16T04:07:31.571Z,11.41
2023-04-16T04:09:59.693Z,11.25
2023-04-16T04:12:27.751Z,11.34
2023-04-16T04:14:56.999Z,11.35
2023-04-16T04:17:24.915Z,11.48
2023-04-16T04:20:00.997Z,11.52
2023-04-16T04:22:29.719Z,11.57
2023-04-16T04:24:57.782Z,11.51
2023-04-16T04:27:25.682Z,11.49
2023-04-16T04:29:53.553Z,11.52
2023-04-16T04:32:22.974Z,11.43
2023-04-16T04:34:51.137Z,11.45
2023-04-16T04:37:19.034Z,11.48
2023-04-16T04:39:47.007Z,11.58
2023-04-16T04:42:14.954Z,11.64
2023-04-16T04:44:42.901Z,11.64
2023-04-16T04:47:10.930Z,11.72
2023-04-16T04:49:40.838Z,11.78
2023-04-16T04:52:09.745Z,11.78
2023-04-16T04:54:41.649Z,11.85
2023-04-16T04:57:09.833Z,11.89
2023-04-16T04:59:37.840Z,11.82
2023-04-16T05:02:05.815Z,11.79
2023-04-16T05:04:33.881Z,11.89
2023-04-16T05:07:03.575Z,11.93
2023-04-16T05:09:31.850Z,12.01
2023-04-16T05:11:59.981Z,12.05
2023-04-16T05:14:27.899Z,11.81
2023-04-16T05:16:56.565Z,11.86
2023-04-16T05:19:24.554Z,11.95
2023-04-16T05:21:52.475Z,11.88
2023-04-16T05:24:22.148Z,11.91
2023-04-16T05:26:50.278Z,11.91
2023-04-16T05:29:18.200Z,11.97
2023-04-16T05:31:46.327Z,12.02
2023-04-16T05:34:14.246Z,11.85
2023-04-16T05:36:42.363Z,11.97
2023-04-16T05:39:10.988Z,11.97
2023-04-16T05:41:40.421Z,12.10
2023-04-16T05:44:08.444Z,12.08
2023-04-16T05:46:36.398Z,12.06
2023-04-16T05:49:04.343Z,12.20
2023-04-16T05:51:32.513Z,12.17
2023-04-16T05:54:00.385Z,12.14
2023-04-16T05:56:28.254Z,12.09
2023-04-16T05:58:57.681Z,12.17
2023-04-16T06:01:26.865Z,12.21
2023-04-16T06:03:54.883Z,12.25
2023-04-16T06:06:23.007Z,12.14
2023-04-16T06:08:50.918Z,12.23
2023-04-16T06:11:19.170Z,12.24
2023-04-16T06:13:47.244Z,12.15
2023-04-16T06:16:16.587Z,12.19
2023-04-16T06:18:44.529Z,12.26
2023-04-16T06:21:12.538Z,12.34
2023-04-16T06:23:40.594Z,12.42
2023-04-16T06:26:08.525Z,12.51
2023-04-16T06:28:36.483Z,12.44
2023-04-16T06:31:04.555Z,12.51
2023-04-16T06:33:34.172Z,12.37
2023-04-16T06:36:02.189Z,12.39
2023-04-16T06:38:30.065Z,12.44
2023-04-16T06:40:58.448Z,12.42
2023-04-16T06:43:26.540Z,12.31
2023-04-16T06:45:54.425Z,12.32
2023-04-16T06:48:22.277Z,12.30
2023-04-16T06:50:52.085Z,12.44
2023-04-16T06:53:19.988Z,12.45
2023-04-16T06:55:47.876Z,12.46
2023-04-16T06:58:16.944Z,12.55
2023-04-16T07:00:44.894Z,12.62
2023-04-16T07:03:12.912Z,12.66
2023-04-16T07:05:41.094Z,12.70
2023-04-16T07:08:10.608Z,12.82
2023-04-16T07:10:41.789Z,12.84
2023-04-16T07:13:09.996Z,12.93
2023-04-16T07:15:39.001Z,12.83
2023-04-16T07:18:07.118Z,12.74
2023-04-16T07:20:36.288Z,12.83
2023-04-16T07:23:04.189Z,12.81
2023-04-16T07:25:33.561Z,12.71
2023-04-16T07:28:01.465Z,12.50
2023-04-16T07:30:34.227Z,12.49
2023-04-16T07:33:02.617Z,12.43
2023-04-16T07:35:31.273Z,12.50
2023-04-16T07:37:59.222Z,12.50
2023-04-16T07:40:27.399Z,12.47
2023-04-16T07:42:56.997Z,12.68
2023-04-16T07:45:25.371Z,12.81
2023-04-16T07:47:53.262Z,12.81
2023-04-16T07:50:21.427Z,12.74
2023-04-16T07:52:49.490Z,12.77
2023-04-16T07:55:17.366Z,12.77
2023-04-16T07:57:45.297Z,12.74
2023-04-16T08:00:15.461Z,12.71
2023-04-16T08:02:44.963Z,12.91
2023-04-16T08:05:13.818Z,13.02
2023-04-16T08:07:41.750Z,12.97
2023-04-16T08:10:10.463Z,13.13
2023-04-16T08:12:39.245Z,13.21
2023-04-16T08:15:08.654Z,13.49
2023-04-16T08:17:40.501Z,13.52
2023-04-16T08:20:09.855Z,13.63
2023-04-16T08:22:41.719Z,13.62
2023-04-16T08:25:11.044Z,13.49
2023-04-16T08:27:42.028Z,13.23
2023-04-16T08:30:10.116Z,13.21
2023-04-16T08:32:43.129Z,13.24
2023-04-16T08:35:11.453Z,13.30
2023-04-16T08:37:40.356Z,13.19
2023-04-16T08:40:09.642Z,13.31
2023-04-16T08:42:42.118Z,13.38
2023-04-16T08:45:15.978Z,13.31
2023-04-16T08:47:47.635Z,13.35
2023-04-16T08:50:16.914Z,13.38
2023-04-16T08:52:51.597Z,13.41
2023-04-16T08:55:22.945Z,13.56
2023-04-16T08:57:58.904Z,13.64
2023-04-16T09:00:28.059Z,13.65
2023-04-16T09:02:57.561Z,13.74
2023-04-16T09:05:26.398Z,13.58
2023-04-16T09:07:54.813Z,13.54
2023-04-16T09:10:23.417Z,13.50
2023-04-16T09:12:51.319Z,13.57
2023-04-16T09:15:22.201Z,13.95
2023-04-16T09:17:50.131Z,14.31
2023-04-16T09:20:19.549Z,14.19
2023-04-16T09:22:48.630Z,14.18
2023-04-16T09:25:16.652Z,14.45
2023-04-16T09:27:45.311Z,14.67
2023-04-16T09:30:24.173Z,14.71
2023-04-16T09:32:53.094Z,14.65
2023-04-16T09:35:22.595Z,14.53
2023-04-16T09:37:57.938Z,14.48
2023-04-16T09:40:27.246Z,14.72
2023-04-16T09:43:00.606Z,14.92
2023-04-16T09:45:32.854Z,14.45
2023-04-16T09:48:06.169Z,14.53
2023-04-16T09:50:35.601Z,14.64
2023-04-16T09:53:04.693Z,14.35
2023-04-16T09:55:33.741Z,14.22
2023-04-16T09:58:02.624Z,14.30
2023-04-16T10:00:31.897Z,14.33
2023-04-16T10:03:07.550Z,14.47
2023-04-16T10:05:40.390Z,14.17
2023-04-16T10:08:14.968Z,14.23
2023-04-16T10:10:43.415Z,14.23
2023-04-16T10:13:12.787Z,14.25
2023-04-16T10:15:41.971Z,14.21
2023-04-16T10:18:10.834Z,14.56
2023-04-16T10:20:40.864Z,14.44
2023-04-16T10:23:09.092Z,14.68
2023-04-16T10:25:40.131Z,14.88
2023-04-16T10:28:08.483Z,14.79
2023-04-16T10:30:38.656Z,14.92
2023-04-16T10:33:07.459Z,14.81
2023-04-16T10:35:42.171Z,14.73
2023-04-16T10:38:32.684Z,14.99
2023-04-16T10:41:02.197Z,15.15
2023-04-16T10:43:31.118Z,15.09
2023-04-16T10:45:59.001Z,15.11
2023-04-16T10:48:30.937Z,15.07
2023-04-16T10:51:09.098Z,14.82
2023-04-16T10:53:38.508Z,14.98
2023-04-16T10:56:13.727Z,14.77
2023-04-16T10:58:42.305Z,14.79
2023-04-16T11:01:16.481Z,14.73
2023-04-16T11:03:49.076Z,14.75
2023-04-16T11:06:24.823Z,14.74
2023-04-16T11:08:54.976Z,14.71
2023-04-16T11:11:24.431Z,14.67
2023-04-16T11:13:57.582Z,14.64
2023-04-16T11:16:27.182Z,14.50
2023-04-16T11:18:57.186Z,14.70
2023-04-16T11:21:28.327Z,14.65
2023-04-16T11:23:57.030Z,14.48
2023-04-16T11:26:26.849Z,14.21
2023-04-16T11:28:56.350Z,14.29
2023-04-16T11:31:24.653Z,14.30
2023-04-16T11:33:52.719Z,14.29
2023-04-16T11:36:26.224Z,14.25
2023-04-16T11:39:03.648Z,14.26
2023-04-16T11:41:31.886Z,14.40
2023-04-16T11:44:01.776Z,14.55
2023-04-16T11:46:44.705Z,14.37
2023-04-16T11:49:13.015Z,14.33
2023-04-16T11:51:42.558Z,14.21
2023-04-16T11:54:20.536Z,14.11
2023-04-16T11:56:49.795Z,14.19
2023-04-16T11:59:23.188Z,14.01
2023-04-16T12:01:52.971Z,14.17
2023-04-16T12:04:23.296Z,14.41
2023-04-16T12:07:06.930Z,14.37
2023-04-16T12:09:40.193Z,14.56
2023-04-16T12:12:27.602Z,14.77
2023-04-16T12:14:57.069Z,14.73
2023-04-16T12:17:25.506Z,14.55
2023-04-16T12:19:56.777Z,14.45
2023-04-16T12:22:29.811Z,14.64
2023-04-16T12:25:01.239Z,14.78
2023-04-16T12:27:43.503Z,15.00
2023-04-16T12:30:15.442Z,14.83
2023-04-16T12:32:44.470Z,14.78
2023-04-16T12:35:12.896Z,14.86
2023-04-16T12:37:42.128Z,14.91
2023-04-16T12:40:12.351Z,14.87
2023-04-16T12:42:40.274Z,14.82
2023-04-16T12:45:11.370Z,14.57
2023-04-16T12:47:39.405Z,14.68
2023-04-16T12:50:08.147Z,14.76
2023-04-16T12:52:36.851Z,14.85
2023-04-16T12:55:05.079Z,14.82
2023-04-16T12:57:34.367Z,14.88
2023-04-16T13:00:02.459Z,14.71
2023-04-16T13:02:30.799Z,14.69
2023-04-16T13:04:59.082Z,14.68
2023-04-16T13:07:28.235Z,14.57
2023-04-16T13:09:56.262Z,14.61
2023-04-16T13:12:24.193Z,14.63
2023-04-16T13:14:53.439Z,14.67
2023-04-16T13:17:21.390Z,14.55
2023-04-16T13:19:49.309Z,14.46
2023-04-16T13:22:17.343Z,14.15
2023-04-16T13:24:46.169Z,14.26
2023-04-16T13:27:16.095Z,14.12
2023-04-16T13:29:44.632Z,13.90
2023-04-16T13:32:14.891Z,13.95
2023-04-16T13:34:42.873Z,14.22
2023-04-16T13:37:14.421Z,14.30
2023-04-16T13:39:42.455Z,14.10
2023-04-16T13:42:13.355Z,14.08
2023-04-16T13:44:42.768Z,13.99
2023-04-16T13:47:11.296Z,13.95
2023-04-16T13:49:41.415Z,13.99
2023-04-16T13:52:09.403Z,14.18
2023-04-16T13:54:38.145Z,14.03
2023-04-16T13:57:06.077Z,14.05
2023-04-16T13:59:34.435Z,14.12
2023-04-16T14:02:03.289Z,14.20
2023-04-16T14:04:31.553Z,14.22
2023-04-16T14:07:01.207Z,14.21
2023-04-16T14:09:29.363Z,14.09
2023-04-16T14:11:57.482Z,14.01
2023-04-16T14:14:26.014Z,14.06
2023-04-16T14:16:55.612Z,14.16
2023-04-16T14:19:23.755Z,14.36
2023-04-16T14:21:51.721Z,14.49
2023-04-16T14:24:22.787Z,14.52
2023-04-16T14:26:52.754Z,14.51
2023-04-16T14:29:21.183Z,14.44
2023-04-16T14:31:51.635Z,14.64
2023-04-16T14:34:19.592Z,14.57
2023-04-16T14:36:49.160Z,14.54
2023-04-16T14:39:20.168Z,14.53
2023-04-16T14:41:49.645Z,14.50
2023-04-16T14:44:17.704Z,14.35
2023-04-16T14:46:47.532Z,14.45
2023-04-16T14:49:16.036Z,14.50
2023-04-16T14:51:46.656Z,14.32
2023-04-16T14:54:15.044Z,14.27
2023-04-16T14:56:43.425Z,14.38
2023-04-16T14:59:15.539Z,14.45
2023-04-16T15:01:44.333Z,14.45
2023-04-16T15:04:12.462Z,14.25
2023-04-16T15:06:42.000Z,14.28
2023-04-16T15:09:10.412Z,14.44
2023-04-16T15:11:38.459Z,14.35
2023-04-16T15:14:06.895Z,14.35
2023-04-16T15:16:37.123Z,14.51
2023-04-16T15:19:05.513Z,14.55
2023-04-16T15:21:33.495Z,14.64
2023-04-16T15:24:01.742Z,14.58
2023-04-16T15:26:30.314Z,14.53
2023-04-16T15:28:58.702Z,14.50
2023-04-16T15:31:26.985Z,14.56
2023-04-16T15:33:56.925Z,14.64
2023-04-16T15:36:24.949Z,14.57
2023-04-16T15:38:54.934Z,14.55
2023-04-16T15:41:23.224Z,14.53
2023-04-16T15:43:51.312Z,14.52
2023-04-16T15:46:19.416Z,14.55
2023-04-16T15:48:47.294Z,14.35
2023-04-16T15:51:19.818Z,14.35
2023-04-16T15:53:49.551Z,14.43
2023-04-16T15:56:17.685Z,14.53
2023-04-16T15:58:45.676Z,14.49
2023-04-16T16:01:13.627Z,14.61
2023-04-16T16:03:45.232Z,14.57
2023-04-16T16:06:13.424Z,14.62
2023-04-16T16:08:43.655Z,14.55
2023-04-16T16:11:14.742Z,14.45
2023-04-16T16:13:43.588Z,14.51
2023-04-16T16:16:11.867Z,14.39
2023-04-16T16:18:41.061Z,14.47
2023-04-16T16:21:09.046Z,14.53
2023-04-16T16:23:37.276Z,14.47
2023-04-16T16:26:07.250Z,14.50
2023-04-16T16:28:37.641Z,14.47
2023-04-16T16:31:08.190Z,14.52
2023-04-16T16:33:37.368Z,14.42
2023-04-16T16:36:13.774Z,14.32
2023-04-16T16:38:42.693Z,14.25
2023-04-16T16:41:13.809Z,14.19
2023-04-16T16:43:41.709Z,14.23
2023-04-16T16:46:10.384Z,14.23
2023-04-16T16:48:38.838Z,14.18
2023-04-16T16:51:11.864Z,14.32
2023-04-16T16:53:39.738Z,14.25
2023-04-16T16:56:07.848Z,14.15
2023-04-16T16:58:37.275Z,14.03
2023-04-16T17:01:05.222Z,14.11
2023-04-16T17:03:33.263Z,14.03
2023-04-16T17:06:01.538Z,14.02
2023-04-16T17:08:30.072Z,14.00
2023-04-16T17:10:58.119Z,13.99
2023-04-16T17:13:26.235Z,13.85
2023-04-16T17:15:55.838Z,13.87
2023-04-16T17:18:23.739Z,13.98
2023-04-16T17:20:51.796Z,13.87
2023-04-16T17:23:19.678Z,13.91
2023-04-16T17:25:47.691Z,13.82
2023-04-16T17:28:15.859Z,13.68
2023-04-16T17:30:43.843Z,13.63
2023-04-16T17:33:17.242Z,13.63
2023-04-16T17:35:45.357Z,13.59
2023-04-16T17:38:15.958Z,13.58
2023-04-16T17:40:43.974Z,13.56
2023-04-16T17:43:14.881Z,13.70
2023-04-16T17:45:42.968Z,13.63
2023-04-16T17:48:12.477Z,13.57
2023-04-16T17:50:43.410Z,13.50
2023-04-16T17:53:12.340Z,13.52
2023-04-16T17:55:40.621Z,13.48
2023-04-16T17:58:08.555Z,13.48
2023-04-16T18:00:36.518Z,13.46
2023-04-16T18:03:05.271Z,13.50
2023-04-16T18:05:34.733Z,13.31
2023-04-16T18:08:02.759Z,13.15
2023-04-16T18:10:32.723Z,13.28
2023-04-16T18:13:00.702Z,13.21
2023-04-16T18:15:28.757Z,13.23
2023-04-16T18:17:56.902Z,13.25
2023-04-16T18:20:24.778Z,13.22
2023-04-16T18:22:54.161Z,13.15
2023-04-16T18:25:32.204Z,13.15
2023-04-16T18:28:03.923Z,13.19
2023-04-16T18:30:31.970Z,13.05
2023-04-16T18:33:33.605Z,13.10
2023-04-16T18:35:47.953Z,13.03
2023-04-16T18:38:17.300Z,13.09
2023-04-16T18:40:45.267Z,13.13
2023-04-16T18:43:13.927Z,13.02
2023-04-16T18:45:42.405Z,13.06
2023-04-16T18:48:11.064Z,13.14
2023-04-16T18:50:39.004Z,13.16
2023-04-16T18:53:06.964Z,13.12
2023-04-16T18:55:36.291Z,13.13
2023-04-16T18:58:04.221Z,12.97
2023-04-16T19:00:32.204Z,12.98
2023-04-16T19:03:00.157Z,13.07
2023-04-16T19:05:28.242Z,13.03
2023-04-16T19:07:56.229Z,13.07
2023-04-16T19:10:24.187Z,13.08
2023-04-16T19:12:53.517Z,13.07
2023-04-16T19:15:21.502Z,13.07
2023-04-16T19:17:49.480Z,13.12
2023-04-16T19:20:17.697Z,13.15
2023-04-16T19:22:46.041Z,12.97
2023-04-16T19:25:13.989Z,12.89
2023-04-16T19:27:41.951Z,12.85
2023-04-16T19:30:12.550Z,12.85
2023-04-16T19:32:40.938Z,12.79
2023-04-16T19:35:12.696Z,12.74
2023-04-16T19:37:40.576Z,12.62
2023-04-16T19:40:09.985Z,12.66
2023-04-16T19:42:38.050Z,12.68
2023-04-16T19:45:07.105Z,12.68
2023-04-16T19:47:36.774Z,12.68
2023-04-16T19:50:04.782Z,12.70
2023-04-16T19:52:37.428Z,12.65
2023-04-16T19:55:08.236Z,12.65
2023-04-16T19:57:36.399Z,12.67
2023-04-16T20:00:05.414Z,12.67
2023-04-16T20:02:33.578Z,12.68
2023-04-16T20:05:03.526Z,12.70
2023-04-16T20:07:31.529Z,12.71
2023-04-16T20:09:59.768Z,12.69
2023-04-16T20:12:27.646Z,12.70
2023-04-16T20:14:55.749Z,12.61
2023-04-16T20:17:23.996Z,12.53
2023-04-16T20:19:52.140Z,12.43
2023-04-16T20:22:21.453Z,12.52
2023-04-16T20:24:49.576Z,12.40
2023-04-16T20:27:19.510Z,12.31
2023-04-16T20:29:47.513Z,12.30
2023-04-16T20:32:15.422Z,12.34
2023-04-16T20:34:43.332Z,12.33
2023-04-16T20:37:14.636Z,12.36
2023-04-16T20:39:45.305Z,12.27
2023-04-16T20:42:14.080Z,12.36
2023-04-16T20:44:42.165Z,12.18
2023-04-16T20:47:15.047Z,12.05
2023-04-16T20:49:46.377Z,12.21
2023-04-16T20:52:14.541Z,12.31
2023-04-16T20:54:44.051Z,12.45
2023-04-16T20:57:13.888Z,12.43
2023-04-16T20:59:41.931Z,12.52
2023-04-16T21:02:10.028Z,12.49
2023-04-16T21:04:38.928Z,12.33
2023-04-16T21:07:07.431Z,12.37
2023-04-16T21:09:35.742Z,12.38
2023-04-16T21:12:08.575Z,12.34
2023-04-16T21:14:36.511Z,12.35
2023-04-16T21:17:04.504Z,12.32
2023-04-16T21:19:32.567Z,12.23
2023-04-16T21:22:03.578Z,12.35
2023-04-16T21:24:32.908Z,12.45
2023-04-16T21:27:01.744Z,12.47
2023-04-16T21:29:31.613Z,12.45
2023-04-16T21:31:59.696Z,12.34
2023-04-16T21:34:27.738Z,12.29
2023-04-16T21:36:56.039Z,12.17
2023-04-16T21:39:26.174Z,12.16
2023-04-16T21:41:54.023Z,12.14
2023-04-16T21:44:22.258Z,12.17
2023-04-16T21:46:51.829Z,12.15
2023-04-16T21:49:19.983Z,12.04
2023-04-16T21:51:47.967Z,12.12
2023-04-16T21:54:17.958Z,12.16
2023-04-16T21:56:46.249Z,12.23
2023-04-16T21:59:14.344Z,12.15
2023-04-16T22:01:42.888Z,12.12
2023-04-16T22:04:12.503Z,12.06
2023-04-16T22:06:41.000Z,12.06
2023-04-16T22:09:12.275Z,12.15
2023-04-16T22:11:40.865Z,12.15
2023-04-16T22:14:09.028Z,12.15
2023-04-16T22:16:37.411Z,12.17
2023-04-16T22:19:05.512Z,12.12
2023-04-16T22:21:35.067Z,12.11
2023-04-16T22:24:03.745Z,12.12
2023-04-16T22:26:31.648Z,12.08
2023-04-16T22:29:02.190Z,12.07
2023-04-16T22:31:30.458Z,11.83
2023-04-16T22:33:58.716Z,11.80
2023-04-16T22:36:26.908Z,11.87
2023-04-16T22:38:56.378Z,11.89
2023-04-16T22:41:24.356Z,11.99
2023-04-16T22:43:52.619Z,11.95
2023-04-16T22:46:22.493Z,11.95
2023-04-16T22:48:51.832Z,11.95
2023-04-16T22:51:21.553Z,11.92
2023-04-16T22:53:49.554Z,11.82
2023-04-16T22:56:18.973Z,11.69
2023-04-16T22:58:48.583Z,11.68
2023-04-16T23:01:17.234Z,11.69
2023-04-16T23:03:47.996Z,11.75
2023-04-16T23:06:16.117Z,11.76
2023-04-16T23:08:46.602Z,11.70
2023-04-16T23:11:14.870Z,11.71
2023-04-16T23:13:44.240Z,11.77
2023-04-16T23:16:12.356Z,11.72
2023-04-16T23:18:40.360Z,11.76
2023-04-16T23:21:08.338Z,11.71
2023-04-16T23:23:36.350Z,11.79
2023-04-16T23:26:04.360Z,11.88
2023-04-16T23:28:32.335Z,11.94
2023-04-16T23:31:01.904Z,11.98
2023-04-16T23:33:30.118Z,12.04
2023-04-16T23:35:58.087Z,11.87
2023-04-16T23:38:26.040Z,11.82
2023-04-16T23:40:54.052Z,11.89
2023-04-16T23:43:22.192Z,11.89
2023-04-16T23:45:50.249Z,11.98
2023-04-16T23:48:19.512Z,11.94
2023-04-16T23:50:47.371Z,11.89
2023-04-16T23:53:15.858Z,11.93
2023-04-16T23:55:43.788Z,11.86
2023-04-16T23:58:11.699Z,11.80
